sensor_id;sensor_type;location;lat;lon;timestamp;P1;durP1;ratioP1;P2;durP2;ratioP2
52158;SDS011;38145;53.182;6.284;2022-09-09T00:00:23;19.58;;;12.15;;
52158;SDS011;38145;53.182;6.284;2022-09-09T00:08:11;16.83;;;12.27;;
52158;SDS011;38145;53.182;6.284;2022-09-09T00:10:44;14.88;;;11.38;;
52158;SDS011;38145;53.182;6.284;2022-09-09T00:13:20;13.43;;;11.95;;
52158;SDS011;38145;53.182;6.284;2022-09-09T00:15:54;13.27;;;11.52;;
52158;SDS011;38145;53.182;6.284;2022-09-09T00:21:02;13.40;;;11.95;;
52158;SDS011;38145;53.182;6.284;2022-09-09T00:23:34;14.50;;;11.93;;
52158;SDS011;38145;53.182;6.284;2022-09-09T00:26:11;14.20;;;11.57;;
52158;SDS011;38145;53.182;6.284;2022-09-09T00:28:48;13.02;;;11.23;;
52158;SDS011;38145;53.182;6.284;2022-09-09T00:31:28;13.05;;;11.65;;
52158;SDS011;38145;53.182;6.284;2022-09-09T00:33:56;13.75;;;11.55;;
52158;SDS011;38145;53.182;6.284;2022-09-09T00:36:27;13.18;;;11.55;;
52158;SDS011;38145;53.182;6.284;2022-09-09T00:38:56;15.85;;;12.30;;
52158;SDS011;38145;53.182;6.284;2022-09-09T00:41:40;14.38;;;11.30;;
52158;SDS011;38145;53.182;6.284;2022-09-09T00:44:31;14.13;;;11.60;;
52158;SDS011;38145;53.182;6.284;2022-09-09T00:47:04;13.60;;;12.20;;
52158;SDS011;38145;53.182;6.284;2022-09-09T00:49:49;17.95;;;10.93;;
52158;SDS011;38145;53.182;6.284;2022-09-09T00:52:29;16.83;;;11.73;;
52158;SDS011;38145;53.182;6.284;2022-09-09T00:55:16;12.88;;;11.00;;
52158;SDS011;38145;53.182;6.284;2022-09-09T00:57:51;14.77;;;11.52;;
52158;SDS011;38145;53.182;6.284;2022-09-09T01:00:20;15.20;;;11.88;;
52158;SDS011;38145;53.182;6.284;2022-09-09T01:02:53;14.02;;;11.95;;
52158;SDS011;38145;53.182;6.284;2022-09-09T01:05:49;16.20;;;11.93;;
52158;SDS011;38145;53.182;6.284;2022-09-09T01:08:44;15.48;;;11.77;;
52158;SDS011;38145;53.182;6.284;2022-09-09T01:11:22;14.20;;;11.55;;
52158;SDS011;38145;53.182;6.284;2022-09-09T01:13:53;13.52;;;11.10;;
52158;SDS011;38145;53.182;6.284;2022-09-09T01:16:35;16.50;;;11.32;;
52158;SDS011;38145;53.182;6.284;2022-09-09T01:19:01;14.70;;;11.18;;
52158;SDS011;38145;53.182;6.284;2022-09-09T01:21:39;15.13;;;11.88;;
52158;SDS011;38145;53.182;6.284;2022-09-09T01:24:22;13.38;;;11.88;;
52158;SDS011;38145;53.182;6.284;2022-09-09T01:27:10;16.15;;;11.88;;
52158;SDS011;38145;53.182;6.284;2022-09-09T01:35:08;16.27;;;11.35;;
52158;SDS011;38145;53.182;6.284;2022-09-09T01:37:40;15.18;;;11.35;;
52158;SDS011;38145;53.182;6.284;2022-09-09T01:40:06;13.27;;;11.45;;
52158;SDS011;38145;53.182;6.284;2022-09-09T01:42:32;21.40;;;12.73;;
52158;SDS011;38145;53.182;6.284;2022-09-09T01:44:58;13.13;;;10.25;;
52158;SDS011;38145;53.182;6.284;2022-09-09T01:47:24;15.68;;;12.02;;
52158;SDS011;38145;53.182;6.284;2022-09-09T01:49:50;11.93;;;10.45;;
52158;SDS011;38145;53.182;6.284;2022-09-09T01:52:16;14.70;;;10.55;;
52158;SDS011;38145;53.182;6.284;2022-09-09T01:54:41;12.50;;;10.77;;
52158;SDS011;38145;53.182;6.284;2022-09-09T01:57:15;12.05;;;10.85;;
52158;SDS011;38145;53.182;6.284;2022-09-09T02:02:24;12.93;;;10.32;;
52158;SDS011;38145;53.182;6.284;2022-09-09T02:04:57;12.73;;;9.55;;
52158;SDS011;38145;53.182;6.284;2022-09-09T02:07:42;14.60;;;10.63;;
52158;SDS011;38145;53.182;6.284;2022-09-09T02:10:19;13.60;;;10.32;;
52158;SDS011;38145;53.182;6.284;2022-09-09T02:12:52;11.77;;;9.68;;
52158;SDS011;38145;53.182;6.284;2022-09-09T02:15:29;14.23;;;10.05;;
52158;SDS011;38145;53.182;6.284;2022-09-09T02:18:01;11.05;;;9.95;;
52158;SDS011;38145;53.182;6.284;2022-09-09T02:20:33;12.77;;;10.18;;
52158;SDS011;38145;53.182;6.284;2022-09-09T02:23:02;13.13;;;10.82;;
52158;SDS011;38145;53.182;6.284;2022-09-09T02:25:29;13.15;;;10.00;;
52158;SDS011;38145;53.182;6.284;2022-09-09T02:27:55;18.45;;;10.75;;
52158;SDS011;38145;53.182;6.284;2022-09-09T02:30:28;14.43;;;10.95;;
52158;SDS011;38145;53.182;6.284;2022-09-09T02:32:57;14.70;;;10.48;;
52158;SDS011;38145;53.182;6.284;2022-09-09T02:35:24;22.70;;;10.98;;
52158;SDS011;38145;53.182;6.284;2022-09-09T02:37:53;14.00;;;12.02;;
52158;SDS011;38145;53.182;6.284;2022-09-09T02:40:22;13.90;;;11.98;;
52158;SDS011;38145;53.182;6.284;2022-09-09T02:42:48;17.10;;;11.80;;
52158;SDS011;38145;53.182;6.284;2022-09-09T02:45:16;15.95;;;12.18;;
52158;SDS011;38145;53.182;6.284;2022-09-09T02:50:33;14.10;;;12.20;;
52158;SDS011;38145;53.182;6.284;2022-09-09T02:53:06;20.88;;;13.23;;
52158;SDS011;38145;53.182;6.284;2022-09-09T02:55:41;20.95;;;13.52;;
52158;SDS011;38145;53.182;6.284;2022-09-09T02:58:15;14.25;;;12.52;;
52158;SDS011;38145;53.182;6.284;2022-09-09T03:00:43;19.08;;;13.45;;
52158;SDS011;38145;53.182;6.284;2022-09-09T03:03:11;18.95;;;13.65;;
52158;SDS011;38145;53.182;6.284;2022-09-09T03:05:38;15.68;;;13.30;;
52158;SDS011;38145;53.182;6.284;2022-09-09T03:08:04;16.40;;;13.23;;
52158;SDS011;38145;53.182;6.284;2022-09-09T03:10:31;17.50;;;13.18;;
52158;SDS011;38145;53.182;6.284;2022-09-09T03:12:58;19.25;;;13.63;;
52158;SDS011;38145;53.182;6.284;2022-09-09T03:15:24;20.65;;;14.25;;
52158;SDS011;38145;53.182;6.284;2022-09-09T03:17:55;18.45;;;13.05;;
52158;SDS011;38145;53.182;6.284;2022-09-09T03:20:23;22.58;;;14.45;;
52158;SDS011;38145;53.182;6.284;2022-09-09T03:22:51;17.88;;;13.27;;
52158;SDS011;38145;53.182;6.284;2022-09-09T03:25:17;17.58;;;13.75;;
52158;SDS011;38145;53.182;6.284;2022-09-09T03:27:43;21.95;;;14.48;;
52158;SDS011;38145;53.182;6.284;2022-09-09T03:30:09;18.27;;;13.63;;
52158;SDS011;38145;53.182;6.284;2022-09-09T03:32:35;22.67;;;14.65;;
52158;SDS011;38145;53.182;6.284;2022-09-09T03:35:02;20.23;;;13.52;;
52158;SDS011;38145;53.182;6.284;2022-09-09T03:37:28;18.83;;;13.63;;
52158;SDS011;38145;53.182;6.284;2022-09-09T03:39:54;15.18;;;13.43;;
52158;SDS011;38145;53.182;6.284;2022-09-09T03:42:20;15.18;;;13.57;;
52158;SDS011;38145;53.182;6.284;2022-09-09T03:44:47;16.85;;;13.90;;
52158;SDS011;38145;53.182;6.284;2022-09-09T03:47:15;17.52;;;13.48;;
52158;SDS011;38145;53.182;6.284;2022-09-09T03:49:42;18.33;;;13.50;;
52158;SDS011;38145;53.182;6.284;2022-09-09T03:52:08;18.00;;;13.70;;
52158;SDS011;38145;53.182;6.284;2022-09-09T03:54:34;17.45;;;12.93;;
52158;SDS011;38145;53.182;6.284;2022-09-09T03:57:00;16.02;;;13.55;;
52158;SDS011;38145;53.182;6.284;2022-09-09T03:59:27;15.27;;;13.52;;
52158;SDS011;38145;53.182;6.284;2022-09-09T04:01:53;19.25;;;12.52;;
52158;SDS011;38145;53.182;6.284;2022-09-09T04:04:19;18.88;;;13.25;;
52158;SDS011;38145;53.182;6.284;2022-09-09T04:06:45;15.93;;;12.63;;
52158;SDS011;38145;53.182;6.284;2022-09-09T04:09:13;15.77;;;12.10;;
52158;SDS011;38145;53.182;6.284;2022-09-09T04:11:39;12.23;;;11.00;;
52158;SDS011;38145;53.182;6.284;2022-09-09T04:14:05;17.10;;;12.77;;
52158;SDS011;38145;53.182;6.284;2022-09-09T04:16:33;17.25;;;11.98;;
52158;SDS011;38145;53.182;6.284;2022-09-09T04:19:00;16.08;;;11.88;;
52158;SDS011;38145;53.182;6.284;2022-09-09T04:21:26;14.52;;;11.45;;
52158;SDS011;38145;53.182;6.284;2022-09-09T04:23:52;15.43;;;11.57;;
52158;SDS011;38145;53.182;6.284;2022-09-09T04:26:18;13.00;;;11.10;;
52158;SDS011;38145;53.182;6.284;2022-09-09T04:28:45;15.90;;;11.10;;
52158;SDS011;38145;53.182;6.284;2022-09-09T04:31:14;17.42;;;11.25;;
52158;SDS011;38145;53.182;6.284;2022-09-09T04:33:43;15.27;;;11.00;;
52158;SDS011;38145;53.182;6.284;2022-09-09T04:36:09;12.30;;;10.43;;
52158;SDS011;38145;53.182;6.284;2022-09-09T04:38:35;12.88;;;10.68;;
52158;SDS011;38145;53.182;6.284;2022-09-09T04:41:01;13.25;;;11.05;;
52158;SDS011;38145;53.182;6.284;2022-09-09T04:43:27;15.05;;;10.13;;
52158;SDS011;38145;53.182;6.284;2022-09-09T04:45:53;14.73;;;10.85;;
52158;SDS011;38145;53.182;6.284;2022-09-09T04:48:19;14.85;;;11.02;;
52158;SDS011;38145;53.182;6.284;2022-09-09T04:50:54;16.38;;;10.65;;
52158;SDS011;38145;53.182;6.284;2022-09-09T04:53:20;17.63;;;12.10;;
52158;SDS011;38145;53.182;6.284;2022-09-09T04:55:47;10.82;;;9.77;;
52158;SDS011;38145;53.182;6.284;2022-09-09T04:58:13;15.48;;;11.15;;
52158;SDS011;38145;53.182;6.284;2022-09-09T05:00:39;14.23;;;11.30;;
52158;SDS011;38145;53.182;6.284;2022-09-09T05:03:07;19.70;;;11.45;;
52158;SDS011;38145;53.182;6.284;2022-09-09T05:05:34;12.60;;;10.88;;
52158;SDS011;38145;53.182;6.284;2022-09-09T05:08:01;15.15;;;11.80;;
52158;SDS011;38145;53.182;6.284;2022-09-09T05:10:28;14.10;;;11.27;;
52158;SDS011;38145;53.182;6.284;2022-09-09T05:12:54;15.13;;;11.95;;
52158;SDS011;38145;53.182;6.284;2022-09-09T05:15:20;17.77;;;11.38;;
52158;SDS011;38145;53.182;6.284;2022-09-09T05:17:46;13.80;;;11.32;;
52158;SDS011;38145;53.182;6.284;2022-09-09T05:20:12;13.52;;;11.30;;
52158;SDS011;38145;53.182;6.284;2022-09-09T05:22:37;16.15;;;10.95;;
52158;SDS011;38145;53.182;6.284;2022-09-09T05:25:03;17.73;;;11.65;;
52158;SDS011;38145;53.182;6.284;2022-09-09T05:27:29;13.68;;;10.63;;
52158;SDS011;38145;53.182;6.284;2022-09-09T05:29:56;19.58;;;11.18;;
52158;SDS011;38145;53.182;6.284;2022-09-09T05:32:23;14.05;;;11.13;;
52158;SDS011;38145;53.182;6.284;2022-09-09T05:34:49;13.77;;;11.15;;
52158;SDS011;38145;53.182;6.284;2022-09-09T05:37:15;13.68;;;11.75;;
52158;SDS011;38145;53.182;6.284;2022-09-09T05:39:41;16.92;;;11.38;;
52158;SDS011;38145;53.182;6.284;2022-09-09T05:42:07;15.73;;;12.40;;
52158;SDS011;38145;53.182;6.284;2022-09-09T05:44:33;14.75;;;11.80;;
52158;SDS011;38145;53.182;6.284;2022-09-09T05:46:59;15.13;;;12.70;;
52158;SDS011;38145;53.182;6.284;2022-09-09T05:49:24;14.88;;;11.82;;
52158;SDS011;38145;53.182;6.284;2022-09-09T05:51:50;15.30;;;11.35;;
52158;SDS011;38145;53.182;6.284;2022-09-09T05:54:17;17.05;;;12.05;;
52158;SDS011;38145;53.182;6.284;2022-09-09T05:56:42;14.20;;;12.02;;
52158;SDS011;38145;53.182;6.284;2022-09-09T05:59:08;17.40;;;12.63;;
52158;SDS011;38145;53.182;6.284;2022-09-09T06:01:35;13.60;;;11.93;;
52158;SDS011;38145;53.182;6.284;2022-09-09T06:04:05;17.58;;;12.77;;
52158;SDS011;38145;53.182;6.284;2022-09-09T06:06:33;15.17;;;12.73;;
52158;SDS011;38145;53.182;6.284;2022-09-09T06:09:02;19.80;;;13.98;;
52158;SDS011;38145;53.182;6.284;2022-09-09T06:11:31;16.75;;;13.00;;
52158;SDS011;38145;53.182;6.284;2022-09-09T06:14:01;17.38;;;13.43;;
52158;SDS011;38145;53.182;6.284;2022-09-09T06:16:28;20.15;;;13.50;;
52158;SDS011;38145;53.182;6.284;2022-09-09T06:18:55;15.30;;;13.10;;
52158;SDS011;38145;53.182;6.284;2022-09-09T06:21:23;17.90;;;13.20;;
52158;SDS011;38145;53.182;6.284;2022-09-09T06:23:51;16.13;;;13.45;;
52158;SDS011;38145;53.182;6.284;2022-09-09T06:26:19;18.08;;;14.18;;
52158;SDS011;38145;53.182;6.284;2022-09-09T06:28:46;20.60;;;13.45;;
52158;SDS011;38145;53.182;6.284;2022-09-09T06:31:13;17.45;;;13.50;;
52158;SDS011;38145;53.182;6.284;2022-09-09T06:33:42;17.17;;;13.45;;
52158;SDS011;38145;53.182;6.284;2022-09-09T06:36:10;16.60;;;14.18;;
52158;SDS011;38145;53.182;6.284;2022-09-09T06:38:37;16.35;;;13.20;;
52158;SDS011;38145;53.182;6.284;2022-09-09T06:41:03;17.20;;;12.88;;
52158;SDS011;38145;53.182;6.284;2022-09-09T06:43:30;16.57;;;12.87;;
52158;SDS011;38145;53.182;6.284;2022-09-09T06:46:01;18.80;;;13.48;;
52158;SDS011;38145;53.182;6.284;2022-09-09T06:48:29;15.25;;;12.20;;
52158;SDS011;38145;53.182;6.284;2022-09-09T06:51:05;16.15;;;12.63;;
52158;SDS011;38145;53.182;6.284;2022-09-09T06:53:34;13.68;;;10.70;;
52158;SDS011;38145;53.182;6.284;2022-09-09T06:56:02;14.98;;;12.23;;
52158;SDS011;38145;53.182;6.284;2022-09-09T06:58:42;14.63;;;11.95;;
52158;SDS011;38145;53.182;6.284;2022-09-09T07:01:09;14.55;;;12.27;;
52158;SDS011;38145;53.182;6.284;2022-09-09T07:03:37;18.60;;;12.85;;
52158;SDS011;38145;53.182;6.284;2022-09-09T07:06:04;17.60;;;11.02;;
52158;SDS011;38145;53.182;6.284;2022-09-09T07:08:31;14.15;;;11.20;;
52158;SDS011;38145;53.182;6.284;2022-09-09T07:11:01;12.73;;;11.45;;
52158;SDS011;38145;53.182;6.284;2022-09-09T07:13:30;13.18;;;11.55;;
52158;SDS011;38145;53.182;6.284;2022-09-09T07:16:03;13.52;;;10.73;;
52158;SDS011;38145;53.182;6.284;2022-09-09T07:18:31;13.25;;;10.95;;
52158;SDS011;38145;53.182;6.284;2022-09-09T07:20:56;15.18;;;11.15;;
52158;SDS011;38145;53.182;6.284;2022-09-09T07:23:23;13.30;;;10.45;;
52158;SDS011;38145;53.182;6.284;2022-09-09T07:25:49;15.27;;;11.07;;
52158;SDS011;38145;53.182;6.284;2022-09-09T07:28:15;14.52;;;10.48;;
52158;SDS011;38145;53.182;6.284;2022-09-09T07:30:41;13.05;;;10.40;;
52158;SDS011;38145;53.182;6.284;2022-09-09T07:33:08;14.75;;;11.15;;
52158;SDS011;38145;53.182;6.284;2022-09-09T07:35:34;12.82;;;10.25;;
52158;SDS011;38145;53.182;6.284;2022-09-09T07:38:02;14.23;;;10.23;;
52158;SDS011;38145;53.182;6.284;2022-09-09T07:40:32;14.00;;;9.90;;
52158;SDS011;38145;53.182;6.284;2022-09-09T07:42:59;12.45;;;10.48;;
52158;SDS011;38145;53.182;6.284;2022-09-09T07:45:25;13.13;;;10.32;;
52158;SDS011;38145;53.182;6.284;2022-09-09T07:47:53;13.35;;;10.02;;
52158;SDS011;38145;53.182;6.284;2022-09-09T07:50:22;12.25;;;9.75;;
52158;SDS011;38145;53.182;6.284;2022-09-09T07:52:48;13.85;;;9.43;;
52158;SDS011;38145;53.182;6.284;2022-09-09T07:55:16;13.77;;;10.32;;
52158;SDS011;38145;53.182;6.284;2022-09-09T07:57:42;12.57;;;9.48;;
52158;SDS011;38145;53.182;6.284;2022-09-09T08:00:08;11.65;;;9.52;;
52158;SDS011;38145;53.182;6.284;2022-09-09T08:02:35;15.55;;;9.32;;
52158;SDS011;38145;53.182;6.284;2022-09-09T08:05:01;10.82;;;9.23;;
52158;SDS011;38145;53.182;6.284;2022-09-09T08:07:27;10.80;;;8.73;;
52158;SDS011;38145;53.182;6.284;2022-09-09T08:09:53;14.65;;;9.40;;
52158;SDS011;38145;53.182;6.284;2022-09-09T08:12:21;12.83;;;9.50;;
52158;SDS011;38145;53.182;6.284;2022-09-09T08:14:48;11.27;;;9.13;;
52158;SDS011;38145;53.182;6.284;2022-09-09T08:17:14;12.98;;;9.00;;
52158;SDS011;38145;53.182;6.284;2022-09-09T08:19:40;12.25;;;8.57;;
52158;SDS011;38145;53.182;6.284;2022-09-09T08:22:05;11.55;;;8.52;;
52158;SDS011;38145;53.182;6.284;2022-09-09T08:24:33;12.98;;;9.10;;
52158;SDS011;38145;53.182;6.284;2022-09-09T08:26:58;10.30;;;7.97;;
52158;SDS011;38145;53.182;6.284;2022-09-09T08:29:24;14.63;;;8.45;;
52158;SDS011;38145;53.182;6.284;2022-09-09T08:31:51;10.38;;;7.43;;
52158;SDS011;38145;53.182;6.284;2022-09-09T08:34:19;10.18;;;7.40;;
52158;SDS011;38145;53.182;6.284;2022-09-09T08:36:47;10.40;;;6.67;;
52158;SDS011;38145;53.182;6.284;2022-09-09T08:39:14;7.80;;;7.10;;
52158;SDS011;38145;53.182;6.284;2022-09-09T08:52:29;10.50;;;5.35;;
52158;SDS011;38145;53.182;6.284;2022-09-09T08:55:13;9.25;;;4.88;;
52158;SDS011;38145;53.182;6.284;2022-09-09T08:57:40;6.53;;;5.32;;
52158;SDS011;38145;53.182;6.284;2022-09-09T09:00:09;7.72;;;5.40;;
52158;SDS011;38145;53.182;6.284;2022-09-09T09:02:44;10.23;;;6.10;;
52158;SDS011;38145;53.182;6.284;2022-09-09T09:05:19;8.50;;;5.30;;
52158;SDS011;38145;53.182;6.284;2022-09-09T09:10:43;9.38;;;5.35;;
52158;SDS011;38145;53.182;6.284;2022-09-09T09:13:14;8.93;;;5.07;;
52158;SDS011;38145;53.182;6.284;2022-09-09T09:15:55;8.60;;;4.90;;
52158;SDS011;38145;53.182;6.284;2022-09-09T09:18:27;7.35;;;4.65;;
52158;SDS011;38145;53.182;6.284;2022-09-09T09:21:03;10.20;;;4.55;;
52158;SDS011;38145;53.182;6.284;2022-09-09T09:23:40;6.50;;;4.13;;
52158;SDS011;38145;53.182;6.284;2022-09-09T09:26:13;8.77;;;4.18;;
52158;SDS011;38145;53.182;6.284;2022-09-09T09:28:40;10.32;;;4.70;;
52158;SDS011;38145;53.182;6.284;2022-09-09T09:31:06;9.13;;;4.82;;
52158;SDS011;38145;53.182;6.284;2022-09-09T09:36:07;9.27;;;4.07;;
52158;SDS011;38145;53.182;6.284;2022-09-09T09:38:33;10.27;;;4.10;;
52158;SDS011;38145;53.182;6.284;2022-09-09T09:41:00;8.32;;;3.80;;
52158;SDS011;38145;53.182;6.284;2022-09-09T09:43:28;10.23;;;3.75;;
52158;SDS011;38145;53.182;6.284;2022-09-09T09:45:54;14.57;;;3.80;;
52158;SDS011;38145;53.182;6.284;2022-09-09T09:48:23;8.88;;;3.38;;
52158;SDS011;38145;53.182;6.284;2022-09-09T09:50:55;10.15;;;3.00;;
52158;SDS011;38145;53.182;6.284;2022-09-09T09:53:25;8.43;;;3.20;;
52158;SDS011;38145;53.182;6.284;2022-09-09T09:55:55;9.63;;;3.58;;
52158;SDS011;38145;53.182;6.284;2022-09-09T09:58:27;11.20;;;3.35;;
52158;SDS011;38145;53.182;6.284;2022-09-09T10:00:57;9.18;;;3.50;;
52158;SDS011;38145;53.182;6.284;2022-09-09T10:05:53;8.93;;;3.53;;
52158;SDS011;38145;53.182;6.284;2022-09-09T10:08:21;12.65;;;4.10;;
52158;SDS011;38145;53.182;6.284;2022-09-09T10:13:25;7.15;;;3.42;;
52158;SDS011;38145;53.182;6.284;2022-09-09T10:16:21;11.45;;;3.70;;
52158;SDS011;38145;53.182;6.284;2022-09-09T10:19:03;12.45;;;3.33;;
52158;SDS011;38145;53.182;6.284;2022-09-09T10:26:46;8.60;;;3.33;;
52158;SDS011;38145;53.182;6.284;2022-09-09T10:29:24;9.05;;;3.78;;
52158;SDS011;38145;53.182;6.284;2022-09-09T10:32:18;6.47;;;3.10;;
52158;SDS011;38145;53.182;6.284;2022-09-09T10:35:09;8.68;;;2.92;;
52158;SDS011;38145;53.182;6.284;2022-09-09T10:37:53;8.95;;;2.70;;
52158;SDS011;38145;53.182;6.284;2022-09-09T10:40:38;7.82;;;2.47;;
52158;SDS011;38145;53.182;6.284;2022-09-09T10:43:13;6.32;;;2.97;;
52158;SDS011;38145;53.182;6.284;2022-09-09T10:53:48;8.00;;;2.72;;
52158;SDS011;38145;53.182;6.284;2022-09-09T10:56:28;9.98;;;1.98;;
52158;SDS011;38145;53.182;6.284;2022-09-09T11:01:52;6.95;;;2.47;;
52158;SDS011;38145;53.182;6.284;2022-09-09T11:04:25;5.60;;;2.10;;
52158;SDS011;38145;53.182;6.284;2022-09-09T11:06:57;8.43;;;2.50;;
52158;SDS011;38145;53.182;6.284;2022-09-09T11:09:30;8.68;;;2.70;;
52158;SDS011;38145;53.182;6.284;2022-09-09T11:12:02;9.35;;;2.15;;
52158;SDS011;38145;53.182;6.284;2022-09-09T11:14:29;6.90;;;2.00;;
52158;SDS011;38145;53.182;6.284;2022-09-09T11:17:04;4.22;;;2.25;;
52158;SDS011;38145;53.182;6.284;2022-09-09T11:19:41;9.45;;;2.50;;
52158;SDS011;38145;53.182;6.284;2022-09-09T11:24:44;9.52;;;2.20;;
52158;SDS011;38145;53.182;6.284;2022-09-09T11:27:21;5.60;;;2.13;;
52158;SDS011;38145;53.182;6.284;2022-09-09T11:29:58;6.50;;;1.80;;
52158;SDS011;38145;53.182;6.284;2022-09-09T11:40:58;5.93;;;2.17;;
52158;SDS011;38145;53.182;6.284;2022-09-09T11:45:57;8.50;;;2.00;;
52158;SDS011;38145;53.182;6.284;2022-09-09T11:48:27;9.13;;;2.10;;
52158;SDS011;38145;53.182;6.284;2022-09-09T11:50:59;7.25;;;2.15;;
52158;SDS011;38145;53.182;6.284;2022-09-09T11:53:25;6.07;;;2.17;;
52158;SDS011;38145;53.182;6.284;2022-09-09T11:56:02;7.03;;;1.80;;
52158;SDS011;38145;53.182;6.284;2022-09-09T11:58:33;9.75;;;2.75;;
52158;SDS011;38145;53.182;6.284;2022-09-09T12:01:12;9.95;;;2.75;;
52158;SDS011;38145;53.182;6.284;2022-09-09T12:06:17;6.22;;;2.35;;
52158;SDS011;38145;53.182;6.284;2022-09-09T12:08:51;7.53;;;1.83;;
52158;SDS011;38145;53.182;6.284;2022-09-09T12:11:25;10.20;;;1.90;;
52158;SDS011;38145;53.182;6.284;2022-09-09T12:13:56;9.23;;;2.00;;
52158;SDS011;38145;53.182;6.284;2022-09-09T12:16:28;11.88;;;1.80;;
52158;SDS011;38145;53.182;6.284;2022-09-09T12:19:03;7.10;;;2.25;;
52158;SDS011;38145;53.182;6.284;2022-09-09T12:21:34;8.77;;;2.05;;
52158;SDS011;38145;53.182;6.284;2022-09-09T12:24:11;6.70;;;2.10;;
52158;SDS011;38145;53.182;6.284;2022-09-09T12:26:45;8.07;;;2.20;;
52158;SDS011;38145;53.182;6.284;2022-09-09T12:29:29;5.53;;;1.80;;
52158;SDS011;38145;53.182;6.284;2022-09-09T12:32:15;5.85;;;2.08;;
52158;SDS011;38145;53.182;6.284;2022-09-09T12:39:58;8.45;;;2.30;;
52158;SDS011;38145;53.182;6.284;2022-09-09T12:42:27;9.95;;;2.25;;
52158;SDS011;38145;53.182;6.284;2022-09-09T12:44:55;9.13;;;1.90;;
52158;SDS011;38145;53.182;6.284;2022-09-09T12:47:25;4.63;;;1.83;;
52158;SDS011;38145;53.182;6.284;2022-09-09T12:50:04;5.82;;;1.88;;
52158;SDS011;38145;53.182;6.284;2022-09-09T12:52:40;6.95;;;1.90;;
52158;SDS011;38145;53.182;6.284;2022-09-09T12:55:06;4.93;;;1.98;;
52158;SDS011;38145;53.182;6.284;2022-09-09T12:57:34;4.38;;;1.63;;
52158;SDS011;38145;53.182;6.284;2022-09-09T13:00:04;7.03;;;2.13;;
52158;SDS011;38145;53.182;6.284;2022-09-09T13:02:44;6.43;;;1.77;;
52158;SDS011;38145;53.182;6.284;2022-09-09T13:05:17;7.20;;;1.83;;
52158;SDS011;38145;53.182;6.284;2022-09-09T13:07:45;6.72;;;2.15;;
52158;SDS011;38145;53.182;6.284;2022-09-09T13:10:13;8.93;;;2.28;;
52158;SDS011;38145;53.182;6.284;2022-09-09T13:12:40;6.82;;;2.05;;
52158;SDS011;38145;53.182;6.284;2022-09-09T13:15:14;6.28;;;1.92;;
52158;SDS011;38145;53.182;6.284;2022-09-09T13:20:16;9.20;;;2.22;;
52158;SDS011;38145;53.182;6.284;2022-09-09T13:22:43;5.97;;;2.45;;
52158;SDS011;38145;53.182;6.284;2022-09-09T13:27:36;4.18;;;1.60;;
52158;SDS011;38145;53.182;6.284;2022-09-09T13:38:15;4.88;;;1.95;;
52158;SDS011;38145;53.182;6.284;2022-09-09T13:40:52;6.47;;;1.88;;
52158;SDS011;38145;53.182;6.284;2022-09-09T13:43:28;4.85;;;1.50;;
52158;SDS011;38145;53.182;6.284;2022-09-09T13:45:59;6.20;;;1.98;;
52158;SDS011;38145;53.182;6.284;2022-09-09T13:48:27;8.88;;;2.45;;
52158;SDS011;38145;53.182;6.284;2022-09-09T13:50:55;7.38;;;2.03;;
52158;SDS011;38145;53.182;6.284;2022-09-09T13:53:23;7.38;;;2.13;;
52158;SDS011;38145;53.182;6.284;2022-09-09T13:55:49;4.10;;;1.45;;
52158;SDS011;38145;53.182;6.284;2022-09-09T13:58:16;5.80;;;1.50;;
52158;SDS011;38145;53.182;6.284;2022-09-09T14:00:44;11.50;;;1.50;;
52158;SDS011;38145;53.182;6.284;2022-09-09T14:03:10;5.57;;;1.30;;
52158;SDS011;38145;53.182;6.284;2022-09-09T14:05:36;4.72;;;1.25;;
52158;SDS011;38145;53.182;6.284;2022-09-09T14:08:03;6.97;;;1.35;;
52158;SDS011;38145;53.182;6.284;2022-09-09T14:10:31;11.95;;;2.90;;
52158;SDS011;38145;53.182;6.284;2022-09-09T14:12:57;5.53;;;1.58;;
52158;SDS011;38145;53.182;6.284;2022-09-09T14:15:22;3.05;;;1.25;;
52158;SDS011;38145;53.182;6.284;2022-09-09T14:17:48;8.40;;;2.03;;
52158;SDS011;38145;53.182;6.284;2022-09-09T14:20:14;3.97;;;1.85;;
52158;SDS011;38145;53.182;6.284;2022-09-09T14:22:42;7.15;;;1.55;;
52158;SDS011;38145;53.182;6.284;2022-09-09T14:25:09;4.78;;;1.40;;
52158;SDS011;38145;53.182;6.284;2022-09-09T14:27:34;5.78;;;1.50;;
52158;SDS011;38145;53.182;6.284;2022-09-09T14:30:00;6.55;;;1.15;;
52158;SDS011;38145;53.182;6.284;2022-09-09T14:32:26;4.20;;;0.90;;
52158;SDS011;38145;53.182;6.284;2022-09-09T14:34:52;3.97;;;1.02;;
52158;SDS011;38145;53.182;6.284;2022-09-09T14:37:18;4.20;;;0.75;;
52158;SDS011;38145;53.182;6.284;2022-09-09T14:39:45;2.67;;;0.75;;
52158;SDS011;38145;53.182;6.284;2022-09-09T14:42:12;1.95;;;0.75;;
52158;SDS011;38145;53.182;6.284;2022-09-09T14:44:38;6.75;;;1.20;;
52158;SDS011;38145;53.182;6.284;2022-09-09T14:47:05;2.45;;;0.60;;
52158;SDS011;38145;53.182;6.284;2022-09-09T14:52:00;3.38;;;1.08;;
52158;SDS011;38145;53.182;6.284;2022-09-09T14:54:26;2.90;;;1.00;;
52158;SDS011;38145;53.182;6.284;2022-09-09T14:56:53;2.20;;;1.10;;
52158;SDS011;38145;53.182;6.284;2022-09-09T14:59:19;5.47;;;1.30;;
52158;SDS011;38145;53.182;6.284;2022-09-09T15:01:44;6.10;;;1.60;;
52158;SDS011;38145;53.182;6.284;2022-09-09T15:04:11;4.40;;;1.70;;
52158;SDS011;38145;53.182;6.284;2022-09-09T15:06:39;3.25;;;1.40;;
52158;SDS011;38145;53.182;6.284;2022-09-09T15:09:07;6.75;;;2.25;;
52158;SDS011;38145;53.182;6.284;2022-09-09T15:11:35;3.17;;;1.23;;
52158;SDS011;38145;53.182;6.284;2022-09-09T15:14:03;3.90;;;1.20;;
52158;SDS011;38145;53.182;6.284;2022-09-09T15:16:30;3.65;;;1.55;;
52158;SDS011;38145;53.182;6.284;2022-09-09T15:18:58;3.55;;;1.52;;
52158;SDS011;38145;53.182;6.284;2022-09-09T15:21:26;3.15;;;1.42;;
52158;SDS011;38145;53.182;6.284;2022-09-09T15:23:53;4.32;;;1.55;;
52158;SDS011;38145;53.182;6.284;2022-09-09T15:26:20;5.90;;;1.80;;
52158;SDS011;38145;53.182;6.284;2022-09-09T15:28:46;3.85;;;1.40;;
52158;SDS011;38145;53.182;6.284;2022-09-09T15:31:16;2.00;;;1.10;;
52158;SDS011;38145;53.182;6.284;2022-09-09T15:33:50;4.60;;;1.33;;
52158;SDS011;38145;53.182;6.284;2022-09-09T15:36:19;4.82;;;1.50;;
52158;SDS011;38145;53.182;6.284;2022-09-09T15:38:47;4.85;;;1.40;;
52158;SDS011;38145;53.182;6.284;2022-09-09T15:41:13;4.72;;;1.75;;
52158;SDS011;38145;53.182;6.284;2022-09-09T15:43:46;7.70;;;1.80;;
52158;SDS011;38145;53.182;6.284;2022-09-09T15:46:25;3.80;;;1.50;;
52158;SDS011;38145;53.182;6.284;2022-09-09T15:49:05;3.17;;;1.65;;
52158;SDS011;38145;53.182;6.284;2022-09-09T15:51:37;4.53;;;1.60;;
52158;SDS011;38145;53.182;6.284;2022-09-09T15:56:30;3.70;;;1.00;;
52158;SDS011;38145;53.182;6.284;2022-09-09T15:58:58;3.50;;;0.95;;
52158;SDS011;38145;53.182;6.284;2022-09-09T16:01:25;2.75;;;1.05;;
52158;SDS011;38145;53.182;6.284;2022-09-09T16:03:52;3.30;;;0.80;;
52158;SDS011;38145;53.182;6.284;2022-09-09T16:06:19;4.60;;;0.82;;
52158;SDS011;38145;53.182;6.284;2022-09-09T16:08:47;2.88;;;1.20;;
52158;SDS011;38145;53.182;6.284;2022-09-09T16:11:17;2.92;;;0.98;;
52158;SDS011;38145;53.182;6.284;2022-09-09T16:13:48;2.60;;;1.25;;
52158;SDS011;38145;53.182;6.284;2022-09-09T16:16:15;5.03;;;1.20;;
52158;SDS011;38145;53.182;6.284;2022-09-09T16:18:45;2.42;;;1.33;;
52158;SDS011;38145;53.182;6.284;2022-09-09T16:21:16;4.45;;;1.48;;
52158;SDS011;38145;53.182;6.284;2022-09-09T16:23:43;2.35;;;1.40;;